createdAt,value
2019-05-07T00:01:54.968Z,8.03
2019-05-07T00:04:23.359Z,8.18
2019-05-07T00:06:52.754Z,7.50
2019-05-07T00:09:23.094Z,8.80
2019-05-07T00:11:50.553Z,8.13
2019-05-07T00:14:18.449Z,7.22
2019-05-07T00:16:46.265Z,8.35
2019-05-07T00:19:14.209Z,8.00
2019-05-07T00:21:42.397Z,7.45
2019-05-07T00:24:12.969Z,6.70
2019-05-07T00:26:42.800Z,6.47
2019-05-07T00:29:12.864Z,6.60
2019-05-07T00:31:41.998Z,5.92
2019-05-07T00:34:09.961Z,5.05
2019-05-07T00:36:49.980Z,4.72
2019-05-07T00:39:38.338Z,5.50
2019-05-07T00:42:24.199Z,5.30
2019-05-07T00:45:20.172Z,4.60
2019-05-07T00:47:42.585Z,4.97
2019-05-07T00:50:18.110Z,4.90
2019-05-07T00:52:46.142Z,4.70
2019-05-07T00:55:14.000Z,5.20
2019-05-07T00:57:42.843Z,4.92
2019-05-07T01:00:13.081Z,4.00
2019-05-07T01:02:42.958Z,4.85
2019-05-07T01:05:12.391Z,4.17
2019-05-07T01:07:41.909Z,4.30
2019-05-07T01:10:12.743Z,4.05
2019-05-07T01:12:42.393Z,3.25
2019-05-07T01:15:12.678Z,4.70
2019-05-07T01:17:42.532Z,4.05
2019-05-07T01:20:12.438Z,3.92
2019-05-07T01:22:42.462Z,4.42
2019-05-07T01:25:12.851Z,4.35
2019-05-07T01:27:42.653Z,3.98
2019-05-07T01:30:12.968Z,4.45
2019-05-07T01:32:50.132Z,3.35
2019-05-07T01:35:24.006Z,3.22
2019-05-07T01:37:52.486Z,3.58
2019-05-07T01:40:22.679Z,3.40
2019-05-07T01:42:50.123Z,4.47
2019-05-07T01:45:18.120Z,3.67
2019-05-07T01:47:45.952Z,3.58
2019-05-07T01:50:13.884Z,3.72
2019-05-07T01:52:42.766Z,3.50
2019-05-07T01:55:14.842Z,3.65
2019-05-07T01:57:42.685Z,3.70
2019-05-07T02:00:12.909Z,4.05
2019-05-07T02:02:51.949Z,3.60
2019-05-07T02:05:32.707Z,4.12
2019-05-07T02:08:03.083Z,3.72
2019-05-07T02:10:39.078Z,3.47
2019-05-07T02:13:07.083Z,3.85
2019-05-07T02:15:34.974Z,3.87
2019-05-07T02:18:02.992Z,4.22
2019-05-07T02:20:32.196Z,3.92
2019-05-07T02:23:02.605Z,3.52
2019-05-07T02:25:32.542Z,3.33
2019-05-07T02:28:02.282Z,3.60
2019-05-07T02:30:30.034Z,3.37
2019-05-07T02:32:59.544Z,4.50
2019-05-07T02:35:27.370Z,3.25
2019-05-07T02:38:13.458Z,3.85
2019-05-07T02:40:45.492Z,4.08
2019-05-07T02:43:14.882Z,3.52
2019-05-07T02:46:20.612Z,3.95
2019-05-07T02:48:42.806Z,3.85
2019-05-07T02:51:19.328Z,3.92
2019-05-07T02:54:13.222Z,3.60
2019-05-07T02:56:42.971Z,3.27
2019-05-07T02:59:13.330Z,3.85
2019-05-07T03:01:43.019Z,4.15
2019-05-07T03:04:12.701Z,3.55
2019-05-07T03:06:43.995Z,2.85
2019-05-07T03:09:14.085Z,3.20
2019-05-07T03:11:43.245Z,2.72
2019-05-07T03:14:10.173Z,2.62
2019-05-07T03:16:44.244Z,3.37
2019-05-07T03:19:08.018Z,2.95
2019-05-07T03:21:54.647Z,2.90
2019-05-07T03:24:45.446Z,3.30
2019-05-07T03:27:14.388Z,3.25
2019-05-07T03:29:53.378Z,3.70
2019-05-07T03:32:36.726Z,2.87
2019-05-07T03:35:19.535Z,2.50
2019-05-07T03:37:47.527Z,2.95
2019-05-07T03:40:15.327Z,2.17
2019-05-07T03:42:44.161Z,2.40
2019-05-07T03:45:38.988Z,2.30
2019-05-07T03:48:27.916Z,2.55
2019-05-07T03:50:57.157Z,2.67
2019-05-07T03:53:25.058Z,1.75
2019-05-07T03:55:54.963Z,2.95
2019-05-07T03:58:23.754Z,2.10
2019-05-07T04:00:53.673Z,2.27
2019-05-07T04:03:24.230Z,2.27
2019-05-07T04:05:53.101Z,2.50
2019-05-07T04:08:23.611Z,2.67
2019-05-07T04:10:53.974Z,3.25
2019-05-07T04:13:23.829Z,2.27
2019-05-07T04:15:52.567Z,1.98
2019-05-07T04:18:23.673Z,2.42
2019-05-07T04:20:53.982Z,2.40
2019-05-07T04:23:23.458Z,2.92
2019-05-07T04:26:17.900Z,3.20
2019-05-07T04:28:54.579Z,2.50
2019-05-07T04:31:25.625Z,3.25
2019-05-07T04:33:56.804Z,2.90
2019-05-07T04:36:29.928Z,3.50
2019-05-07T04:38:57.482Z,5.10
2019-05-07T04:41:25.099Z,3.98
2019-05-07T04:43:54.039Z,4.05
2019-05-07T04:46:23.734Z,4.90
2019-05-07T04:48:53.050Z,4.40
2019-05-07T04:51:48.481Z,4.30
2019-05-07T04:54:16.326Z,3.72
2019-05-07T04:56:45.407Z,4.10
2019-05-07T04:59:13.373Z,4.75
2019-05-07T05:01:53.247Z,4.05
2019-05-07T05:04:30.118Z,4.90
2019-05-07T05:06:52.961Z,5.20
2019-05-07T05:09:24.584Z,4.15
2019-05-07T05:11:54.659Z,4.20
2019-05-07T05:14:23.285Z,4.33
2019-05-07T05:16:52.561Z,4.30
2019-05-07T05:19:23.011Z,3.50
2019-05-07T05:21:58.666Z,4.08
2019-05-07T05:24:34.419Z,3.62
2019-05-07T05:27:04.437Z,3.50
2019-05-07T05:29:34.281Z,3.47
2019-05-07T05:32:02.822Z,3.52
2019-05-07T05:34:33.029Z,3.77
2019-05-07T05:37:02.570Z,3.50
2019-05-07T05:39:34.425Z,3.30
2019-05-07T05:42:11.834Z,4.42
2019-05-07T05:44:42.325Z,4.12
2019-05-07T05:47:11.951Z,3.25
2019-05-07T05:49:43.824Z,4.10
2019-05-07T05:52:36.970Z,3.95
2019-05-07T05:55:16.990Z,3.08
2019-05-07T05:58:05.694Z,3.58
2019-05-07T06:00:52.983Z,3.47
2019-05-07T06:03:46.879Z,2.50
2019-05-07T06:06:29.681Z,2.55
2019-05-07T06:09:08.301Z,1.60
2019-05-07T06:12:05.418Z,2.10
2019-05-07T06:14:36.892Z,2.30
2019-05-07T06:17:37.160Z,2.27
2019-05-07T06:20:29.335Z,2.10
2019-05-07T06:23:32.776Z,1.87
2019-05-07T06:26:00.090Z,2.15
2019-05-07T06:28:28.018Z,2.60
2019-05-07T06:30:58.461Z,2.35
2019-05-07T06:33:28.299Z,2.98
2019-05-07T06:35:55.933Z,2.17
2019-05-07T06:38:25.830Z,2.55
2019-05-07T06:41:19.737Z,2.95
2019-05-07T06:43:55.937Z,2.60
2019-05-07T06:46:25.742Z,2.67
2019-05-07T06:48:53.413Z,2.22
2019-05-07T06:51:22.585Z,2.33
2019-05-07T06:53:51.894Z,2.17
2019-05-07T06:56:19.966Z,1.80
2019-05-07T06:58:56.937Z,2.02
2019-05-07T07:01:49.721Z,2.05
2019-05-07T07:04:47.567Z,2.02
2019-05-07T07:07:47.345Z,2.58
2019-05-07T07:10:49.348Z,2.40
2019-05-07T07:13:18.866Z,2.30
2019-05-07T07:15:49.150Z,3.50
2019-05-07T07:18:16.755Z,3.95
2019-05-07T07:20:44.808Z,3.08
2019-05-07T07:23:15.015Z,3.08
2019-05-07T07:25:43.087Z,2.50
2019-05-07T07:28:12.437Z,1.50
2019-05-07T07:30:59.779Z,2.80
2019-05-07T07:33:31.990Z,1.37
2019-05-07T07:36:02.519Z,1.52
2019-05-07T07:38:34.761Z,1.70
2019-05-07T07:41:18.531Z,2.20
2019-05-07T07:43:46.359Z,1.60
2019-05-07T07:46:16.636Z,2.20
2019-05-07T07:48:44.512Z,2.47
2019-05-07T07:51:15.138Z,1.80
2019-05-07T07:53:43.575Z,2.08
2019-05-07T07:56:52.255Z,2.10
2019-05-07T07:59:45.345Z,2.62
2019-05-07T08:02:32.188Z,2.65
2019-05-07T08:05:02.126Z,2.33
2019-05-07T08:07:32.923Z,2.50
2019-05-07T08:10:02.594Z,2.90
2019-05-07T08:12:32.673Z,2.92
2019-05-07T08:15:14.619Z,2.37
2019-05-07T08:17:32.525Z,2.45
2019-05-07T08:20:02.401Z,2.33
2019-05-07T08:22:33.084Z,2.60
2019-05-07T08:25:04.037Z,2.50
2019-05-07T08:27:32.519Z,3.20
2019-05-07T08:30:08.554Z,2.80
2019-05-07T08:32:56.079Z,2.80
2019-05-07T08:35:28.078Z,3.42
2019-05-07T08:37:56.907Z,3.55
2019-05-07T08:40:25.954Z,3.33
2019-05-07T08:42:57.404Z,2.72
2019-05-07T08:45:43.297Z,3.35
2019-05-07T08:48:21.668Z,3.05
2019-05-07T08:50:52.406Z,3.60
2019-05-07T08:53:22.495Z,3.77
2019-05-07T08:55:52.589Z,3.30
2019-05-07T08:58:23.968Z,3.92
2019-05-07T09:00:52.955Z,4.37
2019-05-07T09:03:39.384Z,3.40
2019-05-07T09:06:08.573Z,3.70
2019-05-07T09:08:37.575Z,4.22
2019-05-07T09:11:05.976Z,4.12
2019-05-07T09:13:34.596Z,3.75
2019-05-07T09:16:02.463Z,3.10
2019-05-07T09:18:32.227Z,3.98
2019-05-07T09:21:02.199Z,3.17
2019-05-07T09:23:35.897Z,4.00
2019-05-07T09:26:06.601Z,4.20
2019-05-07T09:28:57.127Z,3.60
2019-05-07T09:31:52.585Z,3.25
2019-05-07T09:34:25.399Z,3.83
2019-05-07T09:36:59.431Z,4.45
2019-05-07T09:39:32.828Z,4.35
2019-05-07T09:42:07.137Z,5.40
2019-05-07T09:44:36.430Z,5.42
2019-05-07T09:47:10.009Z,5.67
2019-05-07T09:49:41.904Z,4.87
2019-05-07T09:52:18.471Z,4.95
2019-05-07T09:54:49.044Z,5.97
2019-05-07T09:57:31.150Z,5.80
2019-05-07T09:59:55.336Z,6.28
2019-05-07T10:02:56.775Z,6.37
2019-05-07T10:05:43.331Z,5.67
2019-05-07T10:08:13.329Z,5.87
2019-05-07T10:10:50.628Z,6.45
2019-05-07T10:16:29.706Z,6.40
2019-05-07T10:27:19.359Z,7.30
2019-05-07T10:32:25.437Z,7.47
2019-05-07T10:34:54.055Z,7.47
2019-05-07T10:37:21.678Z,7.10
2019-05-07T10:39:52.778Z,7.30
2019-05-07T10:42:23.495Z,8.10
2019-05-07T10:45:13.039Z,7.28
2019-05-07T10:48:11.694Z,7.37
2019-05-07T10:50:45.696Z,6.58
2019-05-07T10:53:14.412Z,7.65
2019-05-07T10:55:45.254Z,8.00
2019-05-07T10:58:12.863Z,8.60
2019-05-07T11:00:42.092Z,6.45
2019-05-07T11:03:12.660Z,7.15
2019-05-07T11:05:41.839Z,8.15
2019-05-07T11:08:17.123Z,11.10
2019-05-07T11:10:45.073Z,9.78
2019-05-07T11:13:13.016Z,9.33
2019-05-07T11:15:43.611Z,9.88
2019-05-07T11:18:16.964Z,9.65
2019-05-07T11:20:50.148Z,10.65
2019-05-07T11:23:14.964Z,8.98
2019-05-07T11:25:43.881Z,11.83
2019-05-07T11:28:12.343Z,11.22
2019-05-07T11:30:42.702Z,11.55
2019-05-07T11:33:17.281Z,12.13
2019-05-07T11:35:44.904Z,10.53
2019-05-07T11:38:20.737Z,10.78
2019-05-07T11:40:44.206Z,11.88
2019-05-07T11:43:40.981Z,13.13
2019-05-07T11:46:22.569Z,12.88
2019-05-07T11:49:00.254Z,12.50
2019-05-07T11:51:51.691Z,13.00
2019-05-07T11:54:20.787Z,12.05
2019-05-07T11:56:51.859Z,11.90
2019-05-07T11:59:21.921Z,11.93
2019-05-07T12:02:01.295Z,12.80
2019-05-07T12:04:31.880Z,12.20
2019-05-07T12:06:59.787Z,13.65
2019-05-07T12:09:28.685Z,12.18
2019-05-07T12:11:58.024Z,12.75
2019-05-07T12:14:32.542Z,12.85
2019-05-07T12:17:02.847Z,12.45
2019-05-07T12:19:37.140Z,12.95
2019-05-07T12:22:05.813Z,12.95
2019-05-07T12:24:33.592Z,12.65
2019-05-07T12:27:02.737Z,13.25
2019-05-07T12:29:34.684Z,13.75
2019-05-07T12:32:36.453Z,13.40
2019-05-07T12:35:09.716Z,12.03
2019-05-07T12:37:37.612Z,13.22
2019-05-07T12:40:07.764Z,14.00
2019-05-07T12:42:36.268Z,11.55
2019-05-07T12:45:04.794Z,11.35
2019-05-07T12:47:34.063Z,13.15
2019-05-07T12:50:05.788Z,14.47
2019-05-07T12:52:48.835Z,12.50
2019-05-07T12:55:37.169Z,13.08
2019-05-07T12:58:06.078Z,13.58
2019-05-07T13:01:05.350Z,13.53
2019-05-07T13:03:44.204Z,12.98
2019-05-07T13:06:13.793Z,13.00
2019-05-07T13:08:42.479Z,14.65
2019-05-07T13:11:13.250Z,14.68
2019-05-07T13:13:43.027Z,15.25
2019-05-07T13:16:12.975Z,14.33
2019-05-07T13:18:42.263Z,13.78
2019-05-07T13:21:13.125Z,16.00
2019-05-07T13:23:42.172Z,16.00
2019-05-07T13:26:13.569Z,14.38
2019-05-07T13:28:41.993Z,16.07
2019-05-07T13:31:12.664Z,14.75
2019-05-07T13:33:42.153Z,15.60
2019-05-07T13:36:12.283Z,15.90
2019-05-07T13:38:58.861Z,14.90
2019-05-07T13:41:58.153Z,14.73
2019-05-07T13:44:37.019Z,15.70
2019-05-07T13:47:25.984Z,13.88
2019-05-07T13:49:54.643Z,14.40
2019-05-07T13:52:23.963Z,15.53
2019-05-07T13:54:53.539Z,15.05
2019-05-07T13:57:23.374Z,16.73
2019-05-07T13:59:53.689Z,17.42
2019-05-07T14:02:24.019Z,17.20
2019-05-07T14:04:53.517Z,15.80
2019-05-07T14:07:21.883Z,17.10
2019-05-07T14:09:49.817Z,16.42
2019-05-07T14:12:19.027Z,16.50
2019-05-07T14:14:53.337Z,16.25
2019-05-07T14:17:23.384Z,17.25
2019-05-07T14:19:53.067Z,15.70
2019-05-07T14:22:22.655Z,16.80
2019-05-07T14:24:57.949Z,15.30
2019-05-07T14:27:26.721Z,17.77
2019-05-07T14:29:54.669Z,17.57
2019-05-07T14:32:49.550Z,17.40
2019-05-07T14:35:39.102Z,17.65
2019-05-07T14:38:27.121Z,16.30
2019-05-07T14:41:00.116Z,16.25
2019-05-07T14:43:35.839Z,16.10
2019-05-07T14:46:05.790Z,17.98
2019-05-07T14:48:36.239Z,17.40
2019-05-07T14:51:04.474Z,16.30
2019-05-07T14:53:32.869Z,16.00
2019-05-07T14:56:02.488Z,18.25
2019-05-07T14:58:31.950Z,17.00
2019-05-07T15:01:02.273Z,17.55
2019-05-07T15:03:31.957Z,16.42
2019-05-07T15:06:04.805Z,16.77
2019-05-07T15:08:32.778Z,17.10
2019-05-07T15:11:02.614Z,17.00
2019-05-07T15:13:32.166Z,16.57
2019-05-07T15:16:00.056Z,18.75
2019-05-07T15:19:04.394Z,19.10
2019-05-07T15:21:32.581Z,19.57
2019-05-07T15:24:02.468Z,21.15
2019-05-07T15:26:32.471Z,18.10
2019-05-07T15:29:09.241Z,20.52
2019-05-07T15:31:57.879Z,21.60
2019-05-07T15:34:25.899Z,20.30
2019-05-07T15:36:53.488Z,21.05
2019-05-07T15:39:22.271Z,21.12
2019-05-07T15:41:53.088Z,20.65
2019-05-07T15:44:21.207Z,21.23
2019-05-07T15:46:51.927Z,20.90
2019-05-07T15:49:21.899Z,21.80
2019-05-07T15:51:54.885Z,21.45
2019-05-07T15:54:22.585Z,20.48
2019-05-07T15:56:52.820Z,22.35
2019-05-07T15:59:27.616Z,21.87
2019-05-07T16:02:03.609Z,20.80
2019-05-07T16:04:33.202Z,22.32
2019-05-07T16:07:05.118Z,20.95
2019-05-07T16:09:45.048Z,22.20
2019-05-07T16:12:16.640Z,21.05
2019-05-07T16:14:52.450Z,22.67
2019-05-07T16:17:27.123Z,20.57
2019-05-07T16:19:58.946Z,20.15
2019-05-07T16:22:32.798Z,20.88
2019-05-07T16:25:06.886Z,21.20
2019-05-07T16:27:34.304Z,21.25
2019-05-07T16:30:02.207Z,20.90
2019-05-07T16:32:30.008Z,20.30
2019-05-07T16:34:59.634Z,20.68
2019-05-07T16:37:27.317Z,22.45
2019-05-07T16:40:01.615Z,22.40
2019-05-07T16:42:32.188Z,21.27
2019-05-07T16:44:59.892Z,20.88
2019-05-07T16:47:28.592Z,21.40
2019-05-07T16:49:57.811Z,21.50
2019-05-07T16:52:26.352Z,21.70
2019-05-07T16:54:57.661Z,23.00
2019-05-07T16:57:51.613Z,22.58
2019-05-07T17:00:49.379Z,23.32
2019-05-07T17:03:24.391Z,22.80
2019-05-07T17:06:32.288Z,21.70
2019-05-07T17:09:10.235Z,21.70
2019-05-07T17:11:38.166Z,20.35
2019-05-07T17:14:09.374Z,21.73
2019-05-07T17:16:37.506Z,21.10
2019-05-07T17:19:06.001Z,22.15
2019-05-07T17:21:33.741Z,21.33
2019-05-07T17:24:02.514Z,21.27
2019-05-07T17:26:31.894Z,21.20
2019-05-07T17:29:02.640Z,21.75
2019-05-07T17:31:31.853Z,21.73
2019-05-07T17:34:02.105Z,21.85
2019-05-07T17:36:29.555Z,22.07
2019-05-07T17:38:57.520Z,20.10
2019-05-07T17:41:27.394Z,21.00
2019-05-07T17:43:55.305Z,20.97
2019-05-07T17:46:24.540Z,21.85
2019-05-07T17:48:52.564Z,20.70
2019-05-07T17:51:42.193Z,21.57
2019-05-07T17:54:12.868Z,21.10
2019-05-07T17:56:42.245Z,21.42
2019-05-07T17:59:12.275Z,20.12
2019-05-07T18:02:11.841Z,21.87
2019-05-07T18:04:51.127Z,19.70
2019-05-07T18:07:12.383Z,19.57
2019-05-07T18:09:43.217Z,24.35
2019-05-07T18:12:13.142Z,34.10
2019-05-07T18:14:46.831Z,34.98
2019-05-07T18:17:44.515Z,36.03
2019-05-07T18:20:13.581Z,19.45
2019-05-07T18:22:41.333Z,20.10
2019-05-07T18:25:09.839Z,18.90
2019-05-07T18:27:37.468Z,18.48
2019-05-07T18:30:07.874Z,20.30
2019-05-07T18:32:42.581Z,19.02
2019-05-07T18:35:12.619Z,18.98
2019-05-07T18:37:52.573Z,18.73
2019-05-07T18:40:24.455Z,19.70
2019-05-07T18:42:52.683Z,17.40
2019-05-07T18:45:21.762Z,18.65
2019-05-07T18:47:51.931Z,18.50
2019-05-07T18:50:19.848Z,18.67
2019-05-07T18:52:47.672Z,17.77
2019-05-07T18:55:15.569Z,17.55
2019-05-07T18:57:43.584Z,19.70
2019-05-07T19:00:15.836Z,18.25
2019-05-07T19:02:52.298Z,17.77
2019-05-07T19:05:22.382Z,18.07
2019-05-07T19:08:02.397Z,17.50
2019-05-07T19:10:22.000Z,16.60
2019-05-07T19:12:52.714Z,17.60
2019-05-07T19:15:21.990Z,17.12
2019-05-07T19:17:50.685Z,16.32
2019-05-07T19:20:18.395Z,16.57
2019-05-07T19:22:46.294Z,16.70
2019-05-07T19:25:15.058Z,15.20
2019-05-07T19:28:22.554Z,15.58
2019-05-07T19:30:54.869Z,17.30
2019-05-07T19:33:27.355Z,16.93
2019-05-07T19:35:55.144Z,15.60
2019-05-07T19:38:23.003Z,18.37
2019-05-07T19:40:52.796Z,17.20
2019-05-07T19:43:23.593Z,15.75
2019-05-07T19:45:52.515Z,16.62
2019-05-07T19:48:20.262Z,18.02
2019-05-07T19:50:48.462Z,18.20
2019-05-07T19:53:16.381Z,16.35
2019-05-07T19:56:03.124Z,16.97
2019-05-07T19:58:32.687Z,18.05
2019-05-07T20:01:04.822Z,16.40
2019-05-07T20:03:32.923Z,14.60
2019-05-07T20:06:02.395Z,16.45
2019-05-07T20:08:32.282Z,16.23
2019-05-07T20:11:05.361Z,14.93
2019-05-07T20:13:36.595Z,14.95
2019-05-07T20:16:17.347Z,13.60
2019-05-07T20:18:45.564Z,14.65
2019-05-07T20:21:25.302Z,14.23
2019-05-07T20:23:54.281Z,13.88
2019-05-07T20:26:23.960Z,13.95
2019-05-07T20:28:53.779Z,13.70
2019-05-07T20:31:22.576Z,15.05
2019-05-07T20:33:53.178Z,13.68
2019-05-07T20:36:20.559Z,14.18
2019-05-07T20:38:49.367Z,13.62
2019-05-07T20:41:17.112Z,13.43
2019-05-07T20:43:45.876Z,14.43
2019-05-07T20:46:14.128Z,13.58
2019-05-07T20:48:42.424Z,14.83
2019-05-07T20:51:12.538Z,13.90
2019-05-07T20:54:13.165Z,13.83
2019-05-07T20:56:46.873Z,12.60
2019-05-07T20:59:15.121Z,13.78
2019-05-07T21:01:43.072Z,13.70
2019-05-07T21:04:13.014Z,12.90
2019-05-07T21:06:40.452Z,12.58
2019-05-07T21:09:08.632Z,13.38
2019-05-07T21:11:36.625Z,13.15
2019-05-07T21:14:04.439Z,12.73
2019-05-07T21:16:33.260Z,13.93
2019-05-07T21:19:02.132Z,12.50
2019-05-07T21:21:32.557Z,13.68
2019-05-07T21:24:02.092Z,12.90
2019-05-07T21:26:29.952Z,13.13
2019-05-07T21:29:02.711Z,13.40
2019-05-07T21:31:32.139Z,12.85
2019-05-07T21:34:00.089Z,13.30
2019-05-07T21:36:29.118Z,13.93
2019-05-07T21:38:57.404Z,12.53
2019-05-07T21:41:28.200Z,12.20
2019-05-07T21:43:59.087Z,13.53
2019-05-07T21:46:26.772Z,13.25
2019-05-07T21:48:54.647Z,13.62
2019-05-07T21:51:22.809Z,13.50
2019-05-07T21:54:13.068Z,16.02
2019-05-07T21:57:02.075Z,12.47
2019-05-07T21:59:35.575Z,14.07
2019-05-07T22:02:09.489Z,13.10
2019-05-07T22:04:39.139Z,13.10
2019-05-07T22:07:06.785Z,13.22
2019-05-07T22:09:36.230Z,14.50
2019-05-07T22:12:05.680Z,14.05
2019-05-07T22:14:33.494Z,12.85
2019-05-07T22:17:02.155Z,13.03
2019-05-07T22:19:33.552Z,14.15
2019-05-07T22:22:02.927Z,13.83
2019-05-07T22:24:32.857Z,14.98
2019-05-07T22:27:01.697Z,13.95
2019-05-07T22:29:32.578Z,13.58
2019-05-07T22:32:18.173Z,14.28
2019-05-07T22:35:05.496Z,14.25
2019-05-07T22:37:35.962Z,13.00
2019-05-07T22:40:12.183Z,13.32
2019-05-07T22:42:48.417Z,13.83
2019-05-07T22:45:16.362Z,13.53
2019-05-07T22:47:44.215Z,12.85
2019-05-07T22:50:12.274Z,14.00
2019-05-07T22:52:39.873Z,12.95
2019-05-07T22:55:13.887Z,14.58
2019-05-07T22:58:14.171Z,13.83
2019-05-07T23:00:52.057Z,13.20
2019-05-07T23:03:20.051Z,13.80
2019-05-07T23:05:48.325Z,13.72
2019-05-07T23:08:16.631Z,13.40
2019-05-07T23:10:44.756Z,14.55
2019-05-07T23:13:13.104Z,14.50
2019-05-07T23:15:42.985Z,13.58
2019-05-07T23:18:13.043Z,14.23
2019-05-07T23:20:42.687Z,12.95
2019-05-07T23:23:13.892Z,13.45
2019-05-07T23:25:42.556Z,13.68
2019-05-07T23:28:12.566Z,13.60
2019-05-07T23:30:42.407Z,13.20
2019-05-07T23:33:12.061Z,13.30
2019-05-07T23:35:42.015Z,13.65
2019-05-07T23:38:11.765Z,13.68
2019-05-07T23:41:02.330Z,13.38
2019-05-07T23:43:30.468Z,13.32
2019-05-07T23:45:58.495Z,14.18
2019-05-07T23:48:26.358Z,14.33
2019-05-07T23:50:55.016Z,13.03
2019-05-07T23:53:22.810Z,13.65
2019-05-07T23:55:52.011Z,13.53
2019-05-07T23:58:19.801Z,13.30
